createdAt,value
2022-09-23T15:35:08.891Z,1.55
2022-09-23T15:37:41.002Z,1.50
2022-09-23T15:40:24.855Z,1.58
2022-09-23T15:43:15.559Z,1.33
2022-09-23T15:46:02.049Z,1.52
2022-09-23T15:48:37.665Z,1.63
2022-09-23T15:51:13.009Z,2.17
2022-09-23T15:53:49.834Z,1.80
2022-09-23T15:56:20.013Z,1.70
2022-09-23T15:58:48.822Z,1.55
2022-09-23T16:01:24.845Z,1.38
2022-09-23T16:03:57.130Z,1.58
2022-09-23T16:06:31.024Z,1.50
2022-09-23T16:09:07.538Z,1.60
2022-09-23T16:11:43.017Z,1.50
2022-09-23T16:14:13.370Z,1.50
2022-09-23T16:16:39.959Z,5.78
2022-09-23T16:19:06.725Z,7.32
2022-09-23T16:21:35.673Z,4.00
2022-09-23T16:24:03.088Z,2.20
2022-09-23T16:26:32.626Z,2.08
2022-09-23T16:29:00.371Z,1.77
2022-09-23T16:31:29.075Z,1.77
2022-09-23T16:33:55.842Z,1.80
2022-09-23T16:36:24.844Z,1.67
2022-09-23T16:38:53.674Z,1.45
2022-09-23T16:41:20.851Z,1.40
2022-09-23T16:43:47.521Z,1.80
2022-09-23T16:46:17.545Z,1.90
2022-09-23T16:48:49.743Z,1.75
2022-09-23T16:51:21.192Z,1.92
2022-09-23T16:53:48.810Z,1.75
2022-09-23T16:56:18.444Z,1.65
2022-09-23T16:58:45.520Z,1.95
2022-09-23T17:01:15.153Z,1.77
2022-09-23T17:03:41.824Z,1.77
2022-09-23T17:06:10.466Z,1.95
2022-09-23T17:08:37.223Z,2.00
2022-09-23T17:11:04.089Z,1.67
2022-09-23T17:13:32.132Z,2.40
2022-09-23T17:15:59.672Z,2.30
2022-09-23T17:18:26.946Z,2.83
2022-09-23T17:20:58.241Z,3.17
2022-09-23T17:23:25.091Z,6.55
2022-09-23T17:25:51.900Z,5.47
2022-09-23T17:28:18.702Z,5.65
2022-09-23T17:30:46.768Z,5.72
2022-09-23T17:33:13.774Z,4.97
2022-09-23T17:35:40.783Z,6.30
2022-09-23T17:38:07.527Z,5.80
2022-09-23T17:40:34.323Z,6.00
2022-09-23T17:43:01.007Z,4.78
2022-09-23T17:45:28.184Z,4.57
2022-09-23T17:47:56.459Z,5.18
2022-09-23T17:50:23.128Z,4.88
2022-09-23T17:52:50.547Z,5.30
2022-09-23T17:55:17.138Z,4.80
2022-09-23T17:57:43.722Z,4.20
2022-09-23T18:00:11.652Z,4.57
2022-09-23T18:02:38.365Z,4.65
2022-09-23T18:21:25.345Z,3.63
2022-09-23T18:23:52.220Z,4.20
2022-09-23T18:26:22.190Z,4.63
2022-09-23T18:28:49.240Z,4.28
2022-09-23T18:31:16.388Z,4.95
2022-09-23T18:33:43.116Z,4.35
2022-09-23T18:36:10.129Z,5.63
2022-09-23T18:38:38.063Z,4.60
2022-09-23T18:41:04.903Z,4.50
2022-09-23T18:43:37.510Z,7.65
2022-09-23T18:46:09.385Z,5.45
2022-09-23T18:48:35.980Z,6.30
2022-09-23T18:51:02.518Z,7.88
2022-09-23T18:53:29.094Z,8.15
2022-09-23T18:55:57.242Z,9.02
2022-09-23T18:58:24.030Z,10.73
2022-09-23T19:00:51.277Z,8.73
2022-09-23T19:03:18.756Z,10.02
2022-09-23T19:05:45.410Z,22.45
2022-09-23T19:08:11.983Z,13.85
2022-09-23T19:10:38.535Z,12.82
2022-09-23T19:13:06.418Z,11.07
2022-09-23T19:15:33.060Z,10.10
2022-09-23T19:17:59.614Z,8.75
2022-09-23T19:20:26.425Z,8.57
2022-09-23T19:22:53.025Z,7.72
2022-09-23T19:25:19.658Z,6.90
2022-09-23T19:27:46.323Z,7.85
2022-09-23T19:30:14.350Z,7.63
2022-09-23T19:32:44.286Z,8.02
2022-09-23T19:35:10.999Z,7.38
2022-09-23T19:37:37.538Z,7.80
2022-09-23T19:40:04.917Z,7.78
2022-09-23T19:42:31.536Z,8.23
2022-09-23T19:44:58.091Z,7.57
2022-09-23T19:47:26.055Z,8.43
2022-09-23T19:49:52.642Z,9.00
2022-09-23T19:52:19.239Z,8.82
2022-09-23T19:54:47.590Z,8.98
2022-09-23T19:57:14.152Z,8.23
2022-09-23T19:59:40.722Z,8.48
2022-09-23T20:02:09.774Z,6.85
2022-09-23T20:04:44.349Z,8.48
2022-09-23T20:07:13.637Z,7.57
2022-09-23T20:09:41.246Z,7.97
2022-09-23T20:12:09.827Z,7.90
2022-09-23T20:14:40.186Z,7.93
2022-09-23T20:17:12.422Z,8.10
2022-09-23T20:19:42.304Z,7.88
2022-09-23T20:22:09.522Z,8.88
2022-09-23T20:24:36.598Z,8.65
2022-09-23T20:27:03.290Z,8.55
2022-09-23T20:29:29.860Z,7.28
2022-09-23T20:31:56.479Z,7.90
2022-09-23T20:34:23.115Z,8.52
2022-09-23T20:36:51.052Z,8.18
2022-09-23T20:39:17.621Z,8.13
2022-09-23T20:41:44.203Z,8.07
2022-09-23T20:44:11.329Z,8.32
2022-09-23T20:46:38.193Z,8.70
2022-09-23T20:49:05.109Z,7.85
2022-09-23T20:51:31.687Z,7.93
2022-09-23T20:54:00.010Z,8.98
2022-09-23T20:56:26.701Z,8.40
2022-09-23T20:58:53.777Z,7.10
2022-09-23T21:01:21.844Z,7.88
2022-09-23T21:03:49.455Z,7.53
2022-09-23T21:06:17.513Z,7.38
2022-09-23T21:08:44.251Z,7.68
2022-09-23T21:11:14.171Z,7.70
2022-09-23T21:13:45.584Z,6.75
2022-09-23T21:16:12.412Z,6.72
2022-09-23T21:18:39.291Z,6.55
2022-09-23T21:21:06.634Z,6.85
2022-09-23T21:23:35.795Z,7.28
2022-09-23T21:26:03.387Z,6.80
2022-09-23T21:28:31.854Z,7.90
2022-09-23T21:30:59.721Z,7.63
2022-09-23T21:33:26.480Z,7.60
2022-09-23T21:35:57.078Z,8.80
2022-09-23T21:38:24.152Z,11.00
2022-09-23T21:40:58.337Z,9.05
2022-09-23T21:43:25.704Z,8.88
2022-09-23T21:45:57.688Z,8.23
2022-09-23T21:48:24.425Z,8.50
2022-09-23T21:50:54.756Z,8.55
2022-09-23T21:53:21.335Z,8.57
2022-09-23T21:55:47.890Z,8.90
2022-09-23T21:58:14.496Z,8.20
2022-09-23T22:00:41.119Z,9.35
2022-09-23T22:03:09.103Z,9.07
2022-09-23T22:05:35.673Z,8.80
2022-09-23T22:08:02.384Z,9.82
2022-09-23T22:10:28.943Z,8.65
2022-09-23T22:12:55.716Z,8.80
2022-09-23T22:15:22.314Z,8.52
2022-09-23T22:17:48.916Z,8.15
2022-09-23T22:20:16.823Z,9.23
2022-09-23T22:22:43.420Z,9.85
2022-09-23T22:25:10.103Z,9.43
2022-09-23T22:27:36.684Z,8.02
2022-09-23T22:30:03.457Z,9.18
2022-09-23T22:32:30.002Z,8.98
2022-09-23T22:34:56.809Z,8.30
2022-09-23T22:37:27.628Z,8.75
2022-09-23T22:39:54.345Z,11.13
2022-09-23T22:42:21.314Z,10.77
2022-09-23T22:44:48.065Z,10.82
2022-09-23T22:47:14.977Z,10.63
2022-09-23T22:49:41.556Z,10.15
2022-09-23T22:52:08.170Z,10.35
2022-09-23T22:54:36.126Z,10.32
2022-09-23T22:57:04.049Z,10.18
2022-09-23T22:59:30.679Z,10.07
2022-09-23T23:01:59.420Z,10.52
2022-09-23T23:04:26.064Z,11.50
2022-09-23T23:06:52.635Z,10.93
2022-09-23T23:09:19.509Z,11.23
2022-09-23T23:11:47.473Z,11.73
2022-09-23T23:14:17.342Z,13.07
2022-09-23T23:16:44.345Z,12.77
2022-09-23T23:19:13.057Z,13.00
2022-09-23T23:21:40.767Z,12.23
2022-09-23T23:24:07.314Z,10.98
2022-09-23T23:26:34.387Z,11.57
2022-09-23T23:29:02.344Z,10.80
2022-09-23T23:31:29.384Z,10.23
2022-09-23T23:33:56.041Z,9.80
2022-09-23T23:36:23.685Z,10.82
2022-09-23T23:38:51.271Z,12.13
2022-09-23T23:41:19.620Z,11.15
2022-09-23T23:43:47.085Z,11.90
2022-09-23T23:46:15.658Z,11.45
2022-09-23T23:48:42.616Z,10.70
2022-09-23T23:51:11.101Z,10.60
2022-09-23T23:53:39.165Z,10.07
2022-09-23T23:56:07.910Z,11.00
2022-09-23T23:58:35.123Z,10.57
